sensor_id;sensor_type;location;lat;lon;timestamp;P1;durP1;ratioP1;P2;durP2;ratioP2
20080;SDS011;10200;49.232;9.222;2023-07-29T00:01:59;3.47;;;2.30;;
20080;SDS011;10200;49.232;9.222;2023-07-29T00:04:25;2.92;;;2.38;;
20080;SDS011;10200;49.232;9.222;2023-07-29T00:06:51;2.45;;;2.22;;
20080;SDS011;10200;49.232;9.222;2023-07-29T00:09:17;2.97;;;2.67;;
20080;SDS011;10200;49.232;9.222;2023-07-29T00:11:42;3.83;;;2.40;;
20080;SDS011;10200;49.232;9.222;2023-07-29T00:14:08;2.38;;;2.17;;
20080;SDS011;10200;49.232;9.222;2023-07-29T00:16:33;2.10;;;1.90;;
20080;SDS011;10200;49.232;9.222;2023-07-29T00:18:59;2.90;;;2.60;;
20080;SDS011;10200;49.232;9.222;2023-07-29T00:21:24;4.00;;;2.50;;
20080;SDS011;10200;49.232;9.222;2023-07-29T00:23:50;2.85;;;2.33;;
20080;SDS011;10200;49.232;9.222;2023-07-29T00:26:16;6.70;;;2.92;;
20080;SDS011;10200;49.232;9.222;2023-07-29T00:28:43;8.00;;;2.38;;
20080;SDS011;10200;49.232;9.222;2023-07-29T00:31:09;6.07;;;2.38;;
20080;SDS011;10200;49.232;9.222;2023-07-29T00:33:35;2.67;;;2.22;;
20080;SDS011;10200;49.232;9.222;2023-07-29T00:36:01;2.35;;;2.15;;
20080;SDS011;10200;49.232;9.222;2023-07-29T00:38:27;2.53;;;2.22;;
20080;SDS011;10200;49.232;9.222;2023-07-29T00:40:53;2.92;;;2.25;;
20080;SDS011;10200;49.232;9.222;2023-07-29T00:43:19;2.40;;;2.17;;
20080;SDS011;10200;49.232;9.222;2023-07-29T00:45:44;5.30;;;2.58;;
20080;SDS011;10200;49.232;9.222;2023-07-29T00:48:10;3.40;;;2.40;;
20080;SDS011;10200;49.232;9.222;2023-07-29T00:50:36;2.90;;;2.40;;
20080;SDS011;10200;49.232;9.222;2023-07-29T00:53:02;5.65;;;2.17;;
20080;SDS011;10200;49.232;9.222;2023-07-29T00:55:29;5.82;;;2.60;;
20080;SDS011;10200;49.232;9.222;2023-07-29T00:57:54;3.45;;;2.50;;
20080;SDS011;10200;49.232;9.222;2023-07-29T01:00:20;6.00;;;2.30;;
20080;SDS011;10200;49.232;9.222;2023-07-29T01:02:47;3.75;;;2.47;;
20080;SDS011;10200;49.232;9.222;2023-07-29T01:05:13;6.30;;;2.88;;
20080;SDS011;10200;49.232;9.222;2023-07-29T01:10:33;3.70;;;2.42;;
20080;SDS011;10200;49.232;9.222;2023-07-29T01:13:37;4.82;;;2.55;;
20080;SDS011;10200;49.232;9.222;2023-07-29T01:16:13;4.45;;;2.53;;
20080;SDS011;10200;49.232;9.222;2023-07-29T01:18:48;4.00;;;3.22;;
20080;SDS011;10200;49.232;9.222;2023-07-29T01:21:18;4.00;;;3.22;;
20080;SDS011;10200;49.232;9.222;2023-07-29T01:23:45;5.68;;;2.83;;
20080;SDS011;10200;49.232;9.222;2023-07-29T01:26:11;4.05;;;3.10;;
20080;SDS011;10200;49.232;9.222;2023-07-29T01:28:36;7.43;;;3.08;;
20080;SDS011;10200;49.232;9.222;2023-07-29T01:31:05;5.15;;;3.03;;
20080;SDS011;10200;49.232;9.222;2023-07-29T01:33:53;5.15;;;3.05;;
20080;SDS011;10200;49.232;9.222;2023-07-29T01:36:28;6.65;;;3.40;;
20080;SDS011;10200;49.232;9.222;2023-07-29T01:38:56;5.65;;;3.35;;
20080;SDS011;10200;49.232;9.222;2023-07-29T01:41:22;4.25;;;3.40;;
20080;SDS011;10200;49.232;9.222;2023-07-29T01:43:49;5.05;;;3.20;;
20080;SDS011;10200;49.232;9.222;2023-07-29T01:46:16;3.63;;;3.10;;
20080;SDS011;10200;49.232;9.222;2023-07-29T01:48:43;2.97;;;2.53;;
20080;SDS011;10200;49.232;9.222;2023-07-29T01:51:10;4.75;;;3.03;;
20080;SDS011;10200;49.232;9.222;2023-07-29T01:53:38;4.35;;;3.17;;
20080;SDS011;10200;49.232;9.222;2023-07-29T01:56:04;4.00;;;2.72;;
20080;SDS011;10200;49.232;9.222;2023-07-29T01:58:29;7.28;;;3.00;;
20080;SDS011;10200;49.232;9.222;2023-07-29T02:00:55;5.38;;;3.13;;
20080;SDS011;10200;49.232;9.222;2023-07-29T02:03:21;3.10;;;2.80;;
20080;SDS011;10200;49.232;9.222;2023-07-29T02:05:46;3.58;;;2.90;;
20080;SDS011;10200;49.232;9.222;2023-07-29T02:08:12;4.25;;;3.10;;
20080;SDS011;10200;49.232;9.222;2023-07-29T02:10:38;6.55;;;2.47;;
20080;SDS011;10200;49.232;9.222;2023-07-29T02:13:04;3.80;;;2.65;;
20080;SDS011;10200;49.232;9.222;2023-07-29T02:15:30;4.55;;;2.88;;
20080;SDS011;10200;49.232;9.222;2023-07-29T02:17:55;2.85;;;2.58;;
20080;SDS011;10200;49.232;9.222;2023-07-29T02:20:21;2.70;;;2.50;;
20080;SDS011;10200;49.232;9.222;2023-07-29T02:22:47;5.82;;;2.40;;
20080;SDS011;10200;49.232;9.222;2023-07-29T02:25:13;5.30;;;2.90;;
20080;SDS011;10200;49.232;9.222;2023-07-29T02:27:39;4.38;;;2.35;;
20080;SDS011;10200;49.232;9.222;2023-07-29T02:30:05;7.07;;;2.53;;
20080;SDS011;10200;49.232;9.222;2023-07-29T02:32:31;3.20;;;2.45;;
20080;SDS011;10200;49.232;9.222;2023-07-29T02:34:57;4.82;;;2.92;;
20080;SDS011;10200;49.232;9.222;2023-07-29T02:37:23;5.57;;;2.38;;
20080;SDS011;10200;49.232;9.222;2023-07-29T02:39:49;5.22;;;2.90;;
20080;SDS011;10200;49.232;9.222;2023-07-29T02:42:15;3.88;;;2.75;;
20080;SDS011;10200;49.232;9.222;2023-07-29T02:44:40;4.70;;;2.90;;
20080;SDS011;10200;49.232;9.222;2023-07-29T02:47:06;7.35;;;2.55;;
20080;SDS011;10200;49.232;9.222;2023-07-29T02:49:32;6.75;;;3.05;;
20080;SDS011;10200;49.232;9.222;2023-07-29T02:51:58;5.78;;;2.70;;
20080;SDS011;10200;49.232;9.222;2023-07-29T02:54:24;4.85;;;2.63;;
20080;SDS011;10200;49.232;9.222;2023-07-29T02:56:50;4.47;;;2.55;;
20080;SDS011;10200;49.232;9.222;2023-07-29T02:59:16;4.28;;;2.92;;
20080;SDS011;10200;49.232;9.222;2023-07-29T03:01:43;2.65;;;2.42;;
20080;SDS011;10200;49.232;9.222;2023-07-29T03:04:08;5.38;;;2.35;;
20080;SDS011;10200;49.232;9.222;2023-07-29T03:06:37;6.82;;;2.60;;
20080;SDS011;10200;49.232;9.222;2023-07-29T03:09:05;4.63;;;2.70;;
20080;SDS011;10200;49.232;9.222;2023-07-29T03:11:30;6.38;;;2.85;;
20080;SDS011;10200;49.232;9.222;2023-07-29T03:13:56;4.13;;;2.60;;
20080;SDS011;10200;49.232;9.222;2023-07-29T03:16:22;4.90;;;2.47;;
20080;SDS011;10200;49.232;9.222;2023-07-29T03:18:48;11.80;;;3.50;;
20080;SDS011;10200;49.232;9.222;2023-07-29T03:21:14;3.22;;;2.50;;
20080;SDS011;10200;49.232;9.222;2023-07-29T03:23:40;2.50;;;2.30;;
20080;SDS011;10200;49.232;9.222;2023-07-29T03:26:06;5.47;;;2.65;;
20080;SDS011;10200;49.232;9.222;2023-07-29T03:28:36;3.30;;;2.70;;
20080;SDS011;10200;49.232;9.222;2023-07-29T03:31:03;8.57;;;3.03;;
20080;SDS011;10200;49.232;9.222;2023-07-29T03:33:29;2.70;;;2.50;;
20080;SDS011;10200;49.232;9.222;2023-07-29T03:35:54;5.70;;;2.42;;
20080;SDS011;10200;49.232;9.222;2023-07-29T03:38:20;2.63;;;2.40;;
20080;SDS011;10200;49.232;9.222;2023-07-29T03:40:46;4.55;;;2.40;;
20080;SDS011;10200;49.232;9.222;2023-07-29T03:43:12;2.60;;;2.00;;
20080;SDS011;10200;49.232;9.222;2023-07-29T03:45:38;4.75;;;2.50;;
20080;SDS011;10200;49.232;9.222;2023-07-29T03:48:05;4.10;;;2.15;;
20080;SDS011;10200;49.232;9.222;2023-07-29T03:50:32;5.38;;;2.20;;
20080;SDS011;10200;49.232;9.222;2023-07-29T03:53:00;2.80;;;1.95;;
20080;SDS011;10200;49.232;9.222;2023-07-29T03:55:26;5.13;;;2.30;;
20080;SDS011;10200;49.232;9.222;2023-07-29T03:57:52;5.10;;;2.40;;
20080;SDS011;10200;49.232;9.222;2023-07-29T04:00:19;7.90;;;3.17;;
20080;SDS011;10200;49.232;9.222;2023-07-29T04:02:44;6.32;;;2.80;;
20080;SDS011;10200;49.232;9.222;2023-07-29T04:05:10;3.33;;;2.40;;
20080;SDS011;10200;49.232;9.222;2023-07-29T04:07:38;2.67;;;2.45;;
20080;SDS011;10200;49.232;9.222;2023-07-29T04:10:04;5.47;;;2.90;;
20080;SDS011;10200;49.232;9.222;2023-07-29T04:12:31;3.22;;;2.53;;
20080;SDS011;10200;49.232;9.222;2023-07-29T04:14:56;3.33;;;2.42;;
20080;SDS011;10200;49.232;9.222;2023-07-29T04:17:22;3.55;;;2.50;;
20080;SDS011;10200;49.232;9.222;2023-07-29T04:19:47;5.18;;;2.50;;
20080;SDS011;10200;49.232;9.222;2023-07-29T04:22:15;7.45;;;3.03;;
20080;SDS011;10200;49.232;9.222;2023-07-29T04:24:43;6.97;;;2.70;;
20080;SDS011;10200;49.232;9.222;2023-07-29T04:27:08;1.92;;;1.83;;
20080;SDS011;10200;49.232;9.222;2023-07-29T04:29:34;3.10;;;1.83;;
20080;SDS011;10200;49.232;9.222;2023-07-29T04:32:02;2.25;;;2.03;;
20080;SDS011;10200;49.232;9.222;2023-07-29T04:34:28;3.72;;;2.25;;
20080;SDS011;10200;49.232;9.222;2023-07-29T04:36:54;5.07;;;2.30;;
20080;SDS011;10200;49.232;9.222;2023-07-29T04:39:19;6.90;;;2.20;;
20080;SDS011;10200;49.232;9.222;2023-07-29T04:41:45;5.32;;;2.08;;
20080;SDS011;10200;49.232;9.222;2023-07-29T04:44:11;4.22;;;2.60;;
20080;SDS011;10200;49.232;9.222;2023-07-29T04:46:37;3.53;;;2.25;;
20080;SDS011;10200;49.232;9.222;2023-07-29T04:49:04;7.07;;;2.33;;
20080;SDS011;10200;49.232;9.222;2023-07-29T04:51:30;3.22;;;2.30;;
20080;SDS011;10200;49.232;9.222;2023-07-29T04:53:56;7.75;;;2.30;;
20080;SDS011;10200;49.232;9.222;2023-07-29T04:56:22;3.30;;;2.17;;
20080;SDS011;10200;49.232;9.222;2023-07-29T04:58:48;5.40;;;1.70;;
20080;SDS011;10200;49.232;9.222;2023-07-29T05:01:14;2.85;;;1.63;;
20080;SDS011;10200;49.232;9.222;2023-07-29T05:03:39;3.58;;;1.63;;
20080;SDS011;10200;49.232;9.222;2023-07-29T05:06:05;6.53;;;1.67;;
20080;SDS011;10200;49.232;9.222;2023-07-29T05:08:31;3.70;;;1.30;;
20080;SDS011;10200;49.232;9.222;2023-07-29T05:10:56;2.20;;;1.70;;
20080;SDS011;10200;49.232;9.222;2023-07-29T05:13:22;1.73;;;1.55;;
20080;SDS011;10200;49.232;9.222;2023-07-29T05:15:48;2.05;;;1.52;;
20080;SDS011;10200;49.232;9.222;2023-07-29T05:18:15;2.83;;;1.50;;
20080;SDS011;10200;49.232;9.222;2023-07-29T05:20:41;4.10;;;2.03;;
20080;SDS011;10200;49.232;9.222;2023-07-29T05:23:07;2.67;;;1.40;;
20080;SDS011;10200;49.232;9.222;2023-07-29T05:25:32;2.72;;;1.80;;
20080;SDS011;10200;49.232;9.222;2023-07-29T05:27:59;6.70;;;1.60;;
20080;SDS011;10200;49.232;9.222;2023-07-29T05:30:29;4.10;;;1.90;;
20080;SDS011;10200;49.232;9.222;2023-07-29T05:32:58;2.03;;;1.33;;
20080;SDS011;10200;49.232;9.222;2023-07-29T05:35:24;2.45;;;1.60;;
20080;SDS011;10200;49.232;9.222;2023-07-29T05:37:50;2.65;;;1.45;;
20080;SDS011;10200;49.232;9.222;2023-07-29T05:40:16;3.17;;;1.20;;
20080;SDS011;10200;49.232;9.222;2023-07-29T05:42:42;3.03;;;1.90;;
20080;SDS011;10200;49.232;9.222;2023-07-29T05:45:07;4.40;;;1.65;;
20080;SDS011;10200;49.232;9.222;2023-07-29T05:47:33;5.28;;;2.30;;
20080;SDS011;10200;49.232;9.222;2023-07-29T05:49:59;2.67;;;1.65;;
20080;SDS011;10200;49.232;9.222;2023-07-29T05:52:29;4.47;;;2.00;;
20080;SDS011;10200;49.232;9.222;2023-07-29T05:54:57;2.85;;;2.08;;
20080;SDS011;10200;49.232;9.222;2023-07-29T05:57:23;3.75;;;1.85;;
20080;SDS011;10200;49.232;9.222;2023-07-29T05:59:49;5.40;;;1.95;;
20080;SDS011;10200;49.232;9.222;2023-07-29T06:02:14;4.22;;;1.70;;
20080;SDS011;10200;49.232;9.222;2023-07-29T06:04:40;2.22;;;1.42;;
20080;SDS011;10200;49.232;9.222;2023-07-29T06:07:06;17.23;;;2.78;;
20080;SDS011;10200;49.232;9.222;2023-07-29T06:09:31;2.80;;;1.88;;
20080;SDS011;10200;49.232;9.222;2023-07-29T06:11:57;9.18;;;2.20;;
20080;SDS011;10200;49.232;9.222;2023-07-29T06:14:22;4.97;;;1.98;;
20080;SDS011;10200;49.232;9.222;2023-07-29T06:16:48;4.68;;;2.95;;
20080;SDS011;10200;49.232;9.222;2023-07-29T06:19:14;4.38;;;2.22;;
20080;SDS011;10200;49.232;9.222;2023-07-29T06:21:39;4.72;;;2.30;;
20080;SDS011;10200;49.232;9.222;2023-07-29T06:24:05;4.13;;;2.25;;
20080;SDS011;10200;49.232;9.222;2023-07-29T06:26:30;1.95;;;1.63;;
20080;SDS011;10200;49.232;9.222;2023-07-29T06:28:56;4.18;;;2.63;;
20080;SDS011;10200;49.232;9.222;2023-07-29T06:31:22;4.97;;;2.38;;
20080;SDS011;10200;49.232;9.222;2023-07-29T06:33:47;2.50;;;1.70;;
20080;SDS011;10200;49.232;9.222;2023-07-29T06:36:13;4.00;;;2.03;;
20080;SDS011;10200;49.232;9.222;2023-07-29T06:38:39;3.35;;;1.83;;
20080;SDS011;10200;49.232;9.222;2023-07-29T06:41:05;3.05;;;2.42;;
20080;SDS011;10200;49.232;9.222;2023-07-29T06:43:31;4.13;;;1.90;;
20080;SDS011;10200;49.232;9.222;2023-07-29T06:45:57;2.38;;;2.00;;
20080;SDS011;10200;49.232;9.222;2023-07-29T06:48:22;5.57;;;1.90;;
20080;SDS011;10200;49.232;9.222;2023-07-29T06:50:48;3.13;;;1.67;;
20080;SDS011;10200;49.232;9.222;2023-07-29T06:53:15;1.80;;;1.35;;
20080;SDS011;10200;49.232;9.222;2023-07-29T06:55:41;3.40;;;1.70;;
20080;SDS011;10200;49.232;9.222;2023-07-29T06:58:07;2.95;;;1.67;;
20080;SDS011;10200;49.232;9.222;2023-07-29T07:00:33;4.43;;;1.52;;
20080;SDS011;10200;49.232;9.222;2023-07-29T07:02:59;2.50;;;1.73;;
20080;SDS011;10200;49.232;9.222;2023-07-29T07:05:24;6.05;;;1.70;;
20080;SDS011;10200;49.232;9.222;2023-07-29T07:07:50;4.00;;;1.50;;
20080;SDS011;10200;49.232;9.222;2023-07-29T07:10:15;1.70;;;1.48;;
20080;SDS011;10200;49.232;9.222;2023-07-29T07:12:41;2.08;;;1.85;;
20080;SDS011;10200;49.232;9.222;2023-07-29T07:15:07;5.28;;;1.70;;
20080;SDS011;10200;49.232;9.222;2023-07-29T07:17:33;5.07;;;1.73;;
20080;SDS011;10200;49.232;9.222;2023-07-29T07:19:58;2.38;;;1.77;;
20080;SDS011;10200;49.232;9.222;2023-07-29T07:22:24;1.70;;;1.40;;
20080;SDS011;10200;49.232;9.222;2023-07-29T07:24:49;2.08;;;1.15;;
20080;SDS011;10200;49.232;9.222;2023-07-29T07:27:15;1.20;;;1.10;;
20080;SDS011;10200;49.232;9.222;2023-07-29T07:29:40;2.20;;;1.63;;
20080;SDS011;10200;49.232;9.222;2023-07-29T07:32:06;3.58;;;1.98;;
20080;SDS011;10200;49.232;9.222;2023-07-29T07:34:32;2.65;;;1.65;;
20080;SDS011;10200;49.232;9.222;2023-07-29T07:36:58;2.55;;;1.55;;
20080;SDS011;10200;49.232;9.222;2023-07-29T07:39:23;5.95;;;1.70;;
20080;SDS011;10200;49.232;9.222;2023-07-29T07:41:49;2.05;;;1.52;;
20080;SDS011;10200;49.232;9.222;2023-07-29T07:44:15;4.28;;;1.63;;
20080;SDS011;10200;49.232;9.222;2023-07-29T07:46:42;3.08;;;1.60;;
20080;SDS011;10200;49.232;9.222;2023-07-29T07:49:08;5.43;;;1.60;;
20080;SDS011;10200;49.232;9.222;2023-07-29T07:51:34;2.78;;;1.48;;
20080;SDS011;10200;49.232;9.222;2023-07-29T07:54:00;3.38;;;1.50;;
20080;SDS011;10200;49.232;9.222;2023-07-29T07:56:25;2.28;;;1.80;;
20080;SDS011;10200;49.232;9.222;2023-07-29T07:58:51;2.20;;;1.33;;
20080;SDS011;10200;49.232;9.222;2023-07-29T08:01:16;2.03;;;1.85;;
20080;SDS011;10200;49.232;9.222;2023-07-29T08:03:42;5.30;;;2.00;;
20080;SDS011;10200;49.232;9.222;2023-07-29T08:06:07;2.45;;;1.70;;
20080;SDS011;10200;49.232;9.222;2023-07-29T08:08:33;1.77;;;1.20;;
20080;SDS011;10200;49.232;9.222;2023-07-29T08:10:58;2.15;;;1.38;;
20080;SDS011;10200;49.232;9.222;2023-07-29T08:13:24;4.43;;;1.73;;
20080;SDS011;10200;49.232;9.222;2023-07-29T08:15:50;2.85;;;1.60;;
20080;SDS011;10200;49.232;9.222;2023-07-29T08:18:17;3.40;;;1.10;;
20080;SDS011;10200;49.232;9.222;2023-07-29T08:20:56;2.53;;;1.90;;
20080;SDS011;10200;49.232;9.222;2023-07-29T08:23:24;3.75;;;1.50;;
20080;SDS011;10200;49.232;9.222;2023-07-29T08:25:54;1.58;;;1.30;;
20080;SDS011;10200;49.232;9.222;2023-07-29T08:28:24;3.10;;;1.42;;
20080;SDS011;10200;49.232;9.222;2023-07-29T08:30:50;3.58;;;1.45;;
20080;SDS011;10200;49.232;9.222;2023-07-29T08:33:16;1.65;;;1.33;;
20080;SDS011;10200;49.232;9.222;2023-07-29T08:35:41;2.20;;;1.40;;
20080;SDS011;10200;49.232;9.222;2023-07-29T08:38:07;4.05;;;1.52;;
20080;SDS011;10200;49.232;9.222;2023-07-29T08:40:33;1.42;;;1.15;;
20080;SDS011;10200;49.232;9.222;2023-07-29T08:43:03;1.02;;;0.93;;
20080;SDS011;10200;49.232;9.222;2023-07-29T08:45:30;3.58;;;1.40;;
20080;SDS011;10200;49.232;9.222;2023-07-29T08:47:59;0.98;;;0.80;;
20080;SDS011;10200;49.232;9.222;2023-07-29T08:50:28;4.00;;;1.48;;
20080;SDS011;10200;49.232;9.222;2023-07-29T08:52:57;1.45;;;1.00;;
20080;SDS011;10200;49.232;9.222;2023-07-29T08:55:24;4.93;;;1.48;;
20080;SDS011;10200;49.232;9.222;2023-07-29T08:57:50;1.02;;;0.90;;
20080;SDS011;10200;49.232;9.222;2023-07-29T09:00:17;2.60;;;1.25;;
20080;SDS011;10200;49.232;9.222;2023-07-29T09:02:42;1.38;;;0.88;;
20080;SDS011;10200;49.232;9.222;2023-07-29T09:05:08;1.45;;;1.10;;
20080;SDS011;10200;49.232;9.222;2023-07-29T09:07:34;2.90;;;1.17;;
20080;SDS011;10200;49.232;9.222;2023-07-29T09:10:01;2.00;;;1.10;;
20080;SDS011;10200;49.232;9.222;2023-07-29T09:12:27;1.13;;;1.00;;
20080;SDS011;10200;49.232;9.222;2023-07-29T09:14:53;1.80;;;1.05;;
20080;SDS011;10200;49.232;9.222;2023-07-29T09:17:19;3.08;;;1.30;;
20080;SDS011;10200;49.232;9.222;2023-07-29T09:19:50;1.60;;;1.10;;
20080;SDS011;10200;49.232;9.222;2023-07-29T09:22:22;2.35;;;1.30;;
20080;SDS011;10200;49.232;9.222;2023-07-29T09:24:49;1.30;;;1.20;;
20080;SDS011;10200;49.232;9.222;2023-07-29T09:27:26;2.65;;;1.70;;
20080;SDS011;10200;49.232;9.222;2023-07-29T09:29:56;1.58;;;1.48;;
20080;SDS011;10200;49.232;9.222;2023-07-29T09:32:22;0.98;;;0.88;;
20080;SDS011;10200;49.232;9.222;2023-07-29T09:34:49;1.95;;;1.63;;
20080;SDS011;10200;49.232;9.222;2023-07-29T09:37:16;0.98;;;0.90;;
20080;SDS011;10200;49.232;9.222;2023-07-29T09:39:48;3.92;;;1.30;;
20080;SDS011;10200;49.232;9.222;2023-07-29T09:42:22;1.20;;;1.08;;
20080;SDS011;10200;49.232;9.222;2023-07-29T09:44:48;1.63;;;1.13;;
20080;SDS011;10200;49.232;9.222;2023-07-29T09:47:19;1.35;;;1.00;;
20080;SDS011;10200;49.232;9.222;2023-07-29T09:49:48;1.90;;;1.30;;
20080;SDS011;10200;49.232;9.222;2023-07-29T09:52:15;1.67;;;1.20;;
20080;SDS011;10200;49.232;9.222;2023-07-29T09:54:42;2.25;;;1.02;;
20080;SDS011;10200;49.232;9.222;2023-07-29T09:57:09;1.45;;;1.30;;
20080;SDS011;10200;49.232;9.222;2023-07-29T09:59:37;6.15;;;1.17;;
20080;SDS011;10200;49.232;9.222;2023-07-29T10:02:03;1.23;;;1.13;;
20080;SDS011;10200;49.232;9.222;2023-07-29T10:04:29;1.10;;;0.85;;
20080;SDS011;10200;49.232;9.222;2023-07-29T10:06:57;3.75;;;1.70;;
20080;SDS011;10200;49.232;9.222;2023-07-29T10:09:24;1.13;;;1.02;;
20080;SDS011;10200;49.232;9.222;2023-07-29T10:11:50;2.20;;;1.30;;
20080;SDS011;10200;49.232;9.222;2023-07-29T10:14:18;1.20;;;0.77;;
20080;SDS011;10200;49.232;9.222;2023-07-29T10:16:45;0.98;;;0.98;;
20080;SDS011;10200;49.232;9.222;2023-07-29T10:19:11;1.02;;;0.95;;
20080;SDS011;10200;49.232;9.222;2023-07-29T10:21:41;4.47;;;1.30;;
20080;SDS011;10200;49.232;9.222;2023-07-29T10:24:11;4.85;;;1.55;;
20080;SDS011;10200;49.232;9.222;2023-07-29T10:26:43;2.20;;;0.95;;
20080;SDS011;10200;49.232;9.222;2023-07-29T10:29:12;2.58;;;0.80;;
20080;SDS011;10200;49.232;9.222;2023-07-29T10:31:40;3.45;;;1.40;;
20080;SDS011;10200;49.232;9.222;2023-07-29T10:34:08;3.60;;;1.20;;
20080;SDS011;10200;49.232;9.222;2023-07-29T10:36:35;2.25;;;1.15;;
20080;SDS011;10200;49.232;9.222;2023-07-29T10:39:01;3.22;;;0.93;;
20080;SDS011;10200;49.232;9.222;2023-07-29T10:47:13;2.05;;;1.35;;
20080;SDS011;10200;49.232;9.222;2023-07-29T10:49:50;1.38;;;1.00;;
20080;SDS011;10200;49.232;9.222;2023-07-29T10:55:00;0.88;;;0.88;;
20080;SDS011;10200;49.232;9.222;2023-07-29T10:57:39;1.00;;;0.90;;
20080;SDS011;10200;49.232;9.222;2023-07-29T11:00:10;1.83;;;1.20;;
20080;SDS011;10200;49.232;9.222;2023-07-29T11:02:37;3.55;;;1.13;;
20080;SDS011;10200;49.232;9.222;2023-07-29T11:05:08;1.80;;;1.15;;
20080;SDS011;10200;49.232;9.222;2023-07-29T11:07:45;2.85;;;1.35;;
20080;SDS011;10200;49.232;9.222;2023-07-29T11:10:12;6.32;;;1.65;;
20080;SDS011;10200;49.232;9.222;2023-07-29T11:17:48;3.47;;;1.48;;
20080;SDS011;10200;49.232;9.222;2023-07-29T11:20:19;1.77;;;1.10;;
20080;SDS011;10200;49.232;9.222;2023-07-29T11:22:46;3.47;;;1.50;;
20080;SDS011;10200;49.232;9.222;2023-07-29T11:25:13;1.52;;;1.30;;
20080;SDS011;10200;49.232;9.222;2023-07-29T11:27:42;1.42;;;1.10;;
20080;SDS011;10200;49.232;9.222;2023-07-29T11:30:10;1.30;;;1.20;;
20080;SDS011;10200;49.232;9.222;2023-07-29T11:32:39;1.27;;;1.17;;
20080;SDS011;10200;49.232;9.222;2023-07-29T11:35:08;3.80;;;1.10;;
20080;SDS011;10200;49.232;9.222;2023-07-29T11:37:40;2.25;;;1.60;;
20080;SDS011;10200;49.232;9.222;2023-07-29T11:40:06;2.55;;;1.00;;
20080;SDS011;10200;49.232;9.222;2023-07-29T11:42:36;1.83;;;1.00;;
20080;SDS011;10200;49.232;9.222;2023-07-29T11:45:03;1.20;;;1.00;;
20080;SDS011;10200;49.232;9.222;2023-07-29T11:47:31;1.60;;;0.98;;
20080;SDS011;10200;49.232;9.222;2023-07-29T11:50:00;2.35;;;0.70;;
20080;SDS011;10200;49.232;9.222;2023-07-29T11:52:27;1.88;;;0.93;;
20080;SDS011;10200;49.232;9.222;2023-07-29T11:54:52;0.50;;;0.50;;
20080;SDS011;10200;49.232;9.222;2023-07-29T11:57:19;2.10;;;0.75;;
20080;SDS011;10200;49.232;9.222;2023-07-29T11:59:46;1.13;;;0.93;;
20080;SDS011;10200;49.232;9.222;2023-07-29T12:02:16;0.80;;;0.80;;
20080;SDS011;10200;49.232;9.222;2023-07-29T12:04:44;1.08;;;1.08;;
20080;SDS011;10200;49.232;9.222;2023-07-29T12:07:13;1.10;;;1.00;;
20080;SDS011;10200;49.232;9.222;2023-07-29T12:09:40;2.22;;;1.30;;
20080;SDS011;10200;49.232;9.222;2023-07-29T12:12:07;2.00;;;1.27;;
20080;SDS011;10200;49.232;9.222;2023-07-29T12:14:34;0.73;;;0.73;;
20080;SDS011;10200;49.232;9.222;2023-07-29T12:17:01;1.70;;;1.17;;
20080;SDS011;10200;49.232;9.222;2023-07-29T12:19:35;1.58;;;1.05;;
20080;SDS011;10200;49.232;9.222;2023-07-29T12:22:03;1.52;;;0.95;;
20080;SDS011;10200;49.232;9.222;2023-07-29T12:24:31;0.82;;;0.82;;
20080;SDS011;10200;49.232;9.222;2023-07-29T12:26:57;2.38;;;0.88;;
20080;SDS011;10200;49.232;9.222;2023-07-29T12:29:23;3.63;;;1.00;;
20080;SDS011;10200;49.232;9.222;2023-07-29T12:31:56;1.60;;;1.00;;
20080;SDS011;10200;49.232;9.222;2023-07-29T12:34:26;1.92;;;0.90;;
20080;SDS011;10200;49.232;9.222;2023-07-29T12:36:53;2.60;;;1.10;;
20080;SDS011;10200;49.232;9.222;2023-07-29T12:39:21;1.23;;;1.10;;
20080;SDS011;10200;49.232;9.222;2023-07-29T12:42:00;1.45;;;1.17;;
20080;SDS011;10200;49.232;9.222;2023-07-29T12:44:35;1.92;;;1.20;;
20080;SDS011;10200;49.232;9.222;2023-07-29T12:47:03;1.08;;;1.00;;
20080;SDS011;10200;49.232;9.222;2023-07-29T12:49:30;1.77;;;1.05;;
20080;SDS011;10200;49.232;9.222;2023-07-29T12:51:56;1.75;;;1.27;;
20080;SDS011;10200;49.232;9.222;2023-07-29T12:54:24;0.80;;;0.80;;
20080;SDS011;10200;49.232;9.222;2023-07-29T12:56:50;1.00;;;0.80;;
20080;SDS011;10200;49.232;9.222;2023-07-29T12:59:15;1.60;;;1.00;;
20080;SDS011;10200;49.232;9.222;2023-07-29T13:01:41;2.72;;;1.10;;
20080;SDS011;10200;49.232;9.222;2023-07-29T13:04:07;2.55;;;1.10;;
20080;SDS011;10200;49.232;9.222;2023-07-29T13:06:34;1.10;;;1.00;;
20080;SDS011;10200;49.232;9.222;2023-07-29T13:08:59;1.40;;;1.00;;
20080;SDS011;10200;49.232;9.222;2023-07-29T13:11:25;1.35;;;1.20;;
20080;SDS011;10200;49.232;9.222;2023-07-29T13:13:51;3.30;;;1.27;;
20080;SDS011;10200;49.232;9.222;2023-07-29T13:16:16;6.53;;;1.23;;
20080;SDS011;10200;49.232;9.222;2023-07-29T13:18:43;2.83;;;1.17;;
20080;SDS011;10200;49.232;9.222;2023-07-29T13:21:09;1.45;;;1.25;;
20080;SDS011;10200;49.232;9.222;2023-07-29T13:23:35;1.48;;;0.90;;
20080;SDS011;10200;49.232;9.222;2023-07-29T13:26:02;1.95;;;1.30;;
20080;SDS011;10200;49.232;9.222;2023-07-29T13:28:27;1.15;;;1.00;;
20080;SDS011;10200;49.232;9.222;2023-07-29T13:30:53;2.30;;;1.00;;
20080;SDS011;10200;49.232;9.222;2023-07-29T13:33:19;2.05;;;1.35;;
20080;SDS011;10200;49.232;9.222;2023-07-29T13:35:45;3.03;;;1.23;;
20080;SDS011;10200;49.232;9.222;2023-07-29T13:38:10;4.05;;;1.30;;
20080;SDS011;10200;49.232;9.222;2023-07-29T13:40:36;2.78;;;1.27;;
20080;SDS011;10200;49.232;9.222;2023-07-29T13:43:02;2.67;;;1.17;;
20080;SDS011;10200;49.232;9.222;2023-07-29T13:45:27;1.40;;;1.00;;
20080;SDS011;10200;49.232;9.222;2023-07-29T13:47:53;1.80;;;1.20;;
20080;SDS011;10200;49.232;9.222;2023-07-29T13:50:19;0.80;;;0.80;;
20080;SDS011;10200;49.232;9.222;2023-07-29T13:52:44;1.13;;;1.02;;
20080;SDS011;10200;49.232;9.222;2023-07-29T13:55:10;1.10;;;1.00;;
20080;SDS011;10200;49.232;9.222;2023-07-29T13:57:36;1.42;;;1.20;;
20080;SDS011;10200;49.232;9.222;2023-07-29T14:00:04;2.60;;;1.10;;
20080;SDS011;10200;49.232;9.222;2023-07-29T14:02:30;2.42;;;1.30;;
20080;SDS011;10200;49.232;9.222;2023-07-29T14:04:57;1.60;;;1.30;;
20080;SDS011;10200;49.232;9.222;2023-07-29T14:07:22;1.52;;;1.05;;
20080;SDS011;10200;49.232;9.222;2023-07-29T14:09:48;1.27;;;1.17;;
20080;SDS011;10200;49.232;9.222;2023-07-29T14:12:14;1.60;;;1.17;;
20080;SDS011;10200;49.232;9.222;2023-07-29T14:14:43;1.05;;;1.00;;
20080;SDS011;10200;49.232;9.222;2023-07-29T14:17:09;1.65;;;1.55;;
20080;SDS011;10200;49.232;9.222;2023-07-29T14:19:35;1.23;;;1.10;;
20080;SDS011;10200;49.232;9.222;2023-07-29T14:22:01;1.38;;;1.00;;
20080;SDS011;10200;49.232;9.222;2023-07-29T14:24:27;1.30;;;1.20;;
20080;SDS011;10200;49.232;9.222;2023-07-29T14:26:53;1.55;;;1.20;;
20080;SDS011;10200;49.232;9.222;2023-07-29T14:29:18;1.98;;;1.10;;
20080;SDS011;10200;49.232;9.222;2023-07-29T14:31:44;3.40;;;1.17;;
20080;SDS011;10200;49.232;9.222;2023-07-29T14:34:10;3.47;;;1.50;;
20080;SDS011;10200;49.232;9.222;2023-07-29T14:36:35;1.17;;;1.08;;
20080;SDS011;10200;49.232;9.222;2023-07-29T14:39:03;2.10;;;1.40;;
20080;SDS011;10200;49.232;9.222;2023-07-29T14:41:29;1.52;;;1.30;;
20080;SDS011;10200;49.232;9.222;2023-07-29T14:43:55;6.28;;;1.60;;
20080;SDS011;10200;49.232;9.222;2023-07-29T14:46:21;5.38;;;2.80;;
20080;SDS011;10200;49.232;9.222;2023-07-29T14:48:47;2.60;;;1.50;;
20080;SDS011;10200;49.232;9.222;2023-07-29T14:51:13;4.03;;;1.20;;
20080;SDS011;10200;49.232;9.222;2023-07-29T14:53:40;1.25;;;1.13;;
20080;SDS011;10200;49.232;9.222;2023-07-29T14:56:05;1.20;;;1.10;;
20080;SDS011;10200;49.232;9.222;2023-07-29T14:58:31;3.15;;;1.50;;
20080;SDS011;10200;49.232;9.222;2023-07-29T15:00:57;0.93;;;0.90;;
20080;SDS011;10200;49.232;9.222;2023-07-29T15:03:23;1.55;;;1.45;;